sensor_id;sensor_type;location;lat;lon;timestamp;P1;durP1;ratioP1;P2;durP2;ratioP2
68987;SDS011;56038;46.080;11.116;2022-12-07T00:02:56;8.02;;;6.05;;
68987;SDS011;56038;46.080;11.116;2022-12-07T00:08:00;8.80;;;5.80;;
68987;SDS011;56038;46.080;11.116;2022-12-07T00:13:01;8.90;;;5.80;;
68987;SDS011;56038;46.080;11.116;2022-12-07T00:18:03;8.35;;;6.43;;
68987;SDS011;56038;46.080;11.116;2022-12-07T00:23:06;10.50;;;6.00;;
68987;SDS011;56038;46.080;11.116;2022-12-07T00:28:08;10.30;;;5.50;;
68987;SDS011;56038;46.080;11.116;2022-12-07T00:33:11;7.38;;;6.07;;
68987;SDS011;56038;46.080;11.116;2022-12-07T00:38:14;8.02;;;6.35;;
68987;SDS011;56038;46.080;11.116;2022-12-07T00:43:16;6.57;;;5.10;;
68987;SDS011;56038;46.080;11.116;2022-12-07T00:48:18;8.70;;;5.78;;
68987;SDS011;56038;46.080;11.116;2022-12-07T00:53:22;7.38;;;5.60;;
68987;SDS011;56038;46.080;11.116;2022-12-07T00:58:24;6.97;;;4.97;;
68987;SDS011;56038;46.080;11.116;2022-12-07T01:03:25;6.50;;;4.95;;
68987;SDS011;56038;46.080;11.116;2022-12-07T01:08:29;9.05;;;6.32;;
68987;SDS011;56038;46.080;11.116;2022-12-07T01:13:31;7.50;;;5.60;;
68987;SDS011;56038;46.080;11.116;2022-12-07T01:18:35;7.82;;;5.10;;
68987;SDS011;56038;46.080;11.116;2022-12-07T01:23:38;6.97;;;5.15;;
68987;SDS011;56038;46.080;11.116;2022-12-07T01:28:41;8.88;;;5.85;;
68987;SDS011;56038;46.080;11.116;2022-12-07T01:33:44;7.05;;;5.65;;
68987;SDS011;56038;46.080;11.116;2022-12-07T01:38:49;8.77;;;5.57;;
68987;SDS011;56038;46.080;11.116;2022-12-07T01:44:09;7.10;;;5.30;;
68987;SDS011;56038;46.080;11.116;2022-12-07T01:49:20;7.03;;;5.30;;
68987;SDS011;56038;46.080;11.116;2022-12-07T01:54:27;9.68;;;5.82;;
68987;SDS011;56038;46.080;11.116;2022-12-07T01:59:29;6.75;;;5.00;;
68987;SDS011;56038;46.080;11.116;2022-12-07T02:04:30;6.18;;;4.65;;
68987;SDS011;56038;46.080;11.116;2022-12-07T02:09:34;6.70;;;5.22;;
68987;SDS011;56038;46.080;11.116;2022-12-07T02:14:36;6.40;;;4.80;;
68987;SDS011;56038;46.080;11.116;2022-12-07T02:25:14;4.65;;;4.15;;
68987;SDS011;56038;46.080;11.116;2022-12-07T02:30:25;8.07;;;4.75;;
68987;SDS011;56038;46.080;11.116;2022-12-07T02:35:33;7.50;;;5.15;;
68987;SDS011;56038;46.080;11.116;2022-12-07T02:40:41;6.50;;;5.25;;
68987;SDS011;56038;46.080;11.116;2022-12-07T02:45:48;8.32;;;4.60;;
68987;SDS011;56038;46.080;11.116;2022-12-07T02:50:53;6.15;;;4.43;;
68987;SDS011;56038;46.080;11.116;2022-12-07T02:55:55;8.55;;;5.00;;
68987;SDS011;56038;46.080;11.116;2022-12-07T03:01:02;6.65;;;4.40;;
68987;SDS011;56038;46.080;11.116;2022-12-07T03:06:12;5.70;;;4.22;;
68987;SDS011;56038;46.080;11.116;2022-12-07T03:11:22;10.20;;;4.57;;
68987;SDS011;56038;46.080;11.116;2022-12-07T03:16:35;6.70;;;4.82;;
68987;SDS011;56038;46.080;11.116;2022-12-07T03:21:43;6.10;;;4.80;;
68987;SDS011;56038;46.080;11.116;2022-12-07T03:26:48;6.22;;;4.75;;
68987;SDS011;56038;46.080;11.116;2022-12-07T03:31:56;7.13;;;5.30;;
68987;SDS011;56038;46.080;11.116;2022-12-07T03:37:03;5.70;;;3.85;;
68987;SDS011;56038;46.080;11.116;2022-12-07T03:42:09;6.60;;;5.22;;
68987;SDS011;56038;46.080;11.116;2022-12-07T03:47:14;6.10;;;4.15;;
68987;SDS011;56038;46.080;11.116;2022-12-07T03:52:22;7.00;;;5.03;;
68987;SDS011;56038;46.080;11.116;2022-12-07T03:57:29;6.93;;;4.63;;
68987;SDS011;56038;46.080;11.116;2022-12-07T04:02:34;9.68;;;5.35;;
68987;SDS011;56038;46.080;11.116;2022-12-07T04:07:37;8.55;;;5.00;;
68987;SDS011;56038;46.080;11.116;2022-12-07T04:12:38;5.88;;;4.70;;
68987;SDS011;56038;46.080;11.116;2022-12-07T04:17:42;4.80;;;3.90;;
68987;SDS011;56038;46.080;11.116;2022-12-07T04:22:44;6.18;;;4.88;;
68987;SDS011;56038;46.080;11.116;2022-12-07T04:27:45;7.63;;;4.55;;
68987;SDS011;56038;46.080;11.116;2022-12-07T04:32:48;6.03;;;4.03;;
68987;SDS011;56038;46.080;11.116;2022-12-07T04:37:50;5.38;;;4.43;;
68987;SDS011;56038;46.080;11.116;2022-12-07T04:42:52;11.50;;;5.22;;
68987;SDS011;56038;46.080;11.116;2022-12-07T04:47:55;6.20;;;4.35;;
68987;SDS011;56038;46.080;11.116;2022-12-07T04:52:56;10.43;;;5.95;;
68987;SDS011;56038;46.080;11.116;2022-12-07T04:57:58;6.35;;;4.85;;
68987;SDS011;56038;46.080;11.116;2022-12-07T05:03:01;7.80;;;4.13;;
68987;SDS011;56038;46.080;11.116;2022-12-07T05:08:03;6.47;;;4.43;;
68987;SDS011;56038;46.080;11.116;2022-12-07T05:13:05;5.20;;;4.18;;
68987;SDS011;56038;46.080;11.116;2022-12-07T05:18:08;5.50;;;3.60;;
68987;SDS011;56038;46.080;11.116;2022-12-07T05:23:10;7.38;;;4.40;;
68987;SDS011;56038;46.080;11.116;2022-12-07T05:28:11;5.72;;;3.88;;
68987;SDS011;56038;46.080;11.116;2022-12-07T05:33:15;4.53;;;3.90;;
68987;SDS011;56038;46.080;11.116;2022-12-07T05:38:17;5.18;;;3.97;;
68987;SDS011;56038;46.080;11.116;2022-12-07T05:43:18;4.78;;;4.30;;
68987;SDS011;56038;46.080;11.116;2022-12-07T05:48:22;6.78;;;4.32;;
68987;SDS011;56038;46.080;11.116;2022-12-07T05:53:23;5.95;;;4.40;;
68987;SDS011;56038;46.080;11.116;2022-12-07T05:58:25;6.22;;;4.82;;
68987;SDS011;56038;46.080;11.116;2022-12-07T06:03:42;9.43;;;6.18;;
68987;SDS011;56038;46.080;11.116;2022-12-07T06:08:45;18.90;;;9.25;;
68987;SDS011;56038;46.080;11.116;2022-12-07T06:13:46;37.33;;;19.02;;
68987;SDS011;56038;46.080;11.116;2022-12-07T06:18:49;38.30;;;19.10;;
68987;SDS011;56038;46.080;11.116;2022-12-07T06:23:51;39.53;;;21.30;;
68987;SDS011;56038;46.080;11.116;2022-12-07T06:28:53;17.33;;;10.55;;
68987;SDS011;56038;46.080;11.116;2022-12-07T06:33:58;9.02;;;5.55;;
68987;SDS011;56038;46.080;11.116;2022-12-07T06:39:00;8.68;;;5.60;;
68987;SDS011;56038;46.080;11.116;2022-12-07T06:44:03;8.32;;;4.63;;
68987;SDS011;56038;46.080;11.116;2022-12-07T06:49:07;7.70;;;5.72;;
68987;SDS011;56038;46.080;11.116;2022-12-07T06:54:08;6.88;;;5.43;;
68987;SDS011;56038;46.080;11.116;2022-12-07T06:59:11;11.00;;;6.07;;
68987;SDS011;56038;46.080;11.116;2022-12-07T07:04:14;7.90;;;5.93;;
68987;SDS011;56038;46.080;11.116;2022-12-07T07:09:16;12.18;;;6.20;;
68987;SDS011;56038;46.080;11.116;2022-12-07T07:14:18;11.32;;;6.50;;
68987;SDS011;56038;46.080;11.116;2022-12-07T07:19:22;10.55;;;6.32;;
68987;SDS011;56038;46.080;11.116;2022-12-07T07:24:24;12.05;;;7.22;;
68987;SDS011;56038;46.080;11.116;2022-12-07T07:29:26;9.77;;;6.00;;
68987;SDS011;56038;46.080;11.116;2022-12-07T07:34:29;7.47;;;5.70;;
68987;SDS011;56038;46.080;11.116;2022-12-07T07:39:31;7.25;;;6.00;;
68987;SDS011;56038;46.080;11.116;2022-12-07T07:44:33;7.32;;;6.10;;
68987;SDS011;56038;46.080;11.116;2022-12-07T07:49:36;14.68;;;8.50;;
68987;SDS011;56038;46.080;11.116;2022-12-07T07:54:38;32.60;;;12.60;;
68987;SDS011;56038;46.080;11.116;2022-12-07T07:59:40;11.30;;;7.13;;
68987;SDS011;56038;46.080;11.116;2022-12-07T08:04:43;12.45;;;6.35;;
68987;SDS011;56038;46.080;11.116;2022-12-07T08:09:45;12.40;;;6.70;;
68987;SDS011;56038;46.080;11.116;2022-12-07T08:14:48;9.15;;;6.85;;
68987;SDS011;56038;46.080;11.116;2022-12-07T08:19:52;9.38;;;6.40;;
68987;SDS011;56038;46.080;11.116;2022-12-07T08:24:53;8.65;;;6.22;;
68987;SDS011;56038;46.080;11.116;2022-12-07T08:29:55;10.00;;;5.45;;
68987;SDS011;56038;46.080;11.116;2022-12-07T08:34:58;11.70;;;6.10;;
68987;SDS011;56038;46.080;11.116;2022-12-07T08:40:00;7.80;;;5.20;;
68987;SDS011;56038;46.080;11.116;2022-12-07T08:45:02;5.55;;;4.20;;
68987;SDS011;56038;46.080;11.116;2022-12-07T08:50:06;7.13;;;4.97;;
68987;SDS011;56038;46.080;11.116;2022-12-07T08:55:11;4.90;;;4.22;;
68987;SDS011;56038;46.080;11.116;2022-12-07T09:00:13;10.32;;;4.70;;
68987;SDS011;56038;46.080;11.116;2022-12-07T09:05:18;6.50;;;4.85;;
68987;SDS011;56038;46.080;11.116;2022-12-07T09:10:20;8.38;;;5.18;;
68987;SDS011;56038;46.080;11.116;2022-12-07T09:15:21;7.82;;;5.10;;
68987;SDS011;56038;46.080;11.116;2022-12-07T09:20:25;8.43;;;5.30;;
68987;SDS011;56038;46.080;11.116;2022-12-07T09:25:26;7.13;;;4.80;;
68987;SDS011;56038;46.080;11.116;2022-12-07T09:30:28;6.88;;;4.97;;
68987;SDS011;56038;46.080;11.116;2022-12-07T09:35:31;5.45;;;4.63;;
68987;SDS011;56038;46.080;11.116;2022-12-07T09:40:33;9.18;;;6.20;;
68987;SDS011;56038;46.080;11.116;2022-12-07T09:45:35;5.35;;;4.32;;
68987;SDS011;56038;46.080;11.116;2022-12-07T09:50:39;5.50;;;4.32;;
68987;SDS011;56038;46.080;11.116;2022-12-07T09:55:41;4.38;;;3.95;;
68987;SDS011;56038;46.080;11.116;2022-12-07T10:00:44;6.13;;;3.60;;
68987;SDS011;56038;46.080;11.116;2022-12-07T10:05:48;9.43;;;4.15;;
68987;SDS011;56038;46.080;11.116;2022-12-07T10:10:53;5.38;;;4.47;;
68987;SDS011;56038;46.080;11.116;2022-12-07T10:15:57;4.43;;;3.55;;
68987;SDS011;56038;46.080;11.116;2022-12-07T10:21:05;3.70;;;3.40;;
68987;SDS011;56038;46.080;11.116;2022-12-07T10:26:19;6.80;;;3.35;;
68987;SDS011;56038;46.080;11.116;2022-12-07T10:31:27;3.53;;;3.20;;
68987;SDS011;56038;46.080;11.116;2022-12-07T10:36:35;4.78;;;3.22;;
68987;SDS011;56038;46.080;11.116;2022-12-07T10:41:42;4.13;;;2.50;;
68987;SDS011;56038;46.080;11.116;2022-12-07T10:47:00;2.80;;;2.60;;
68987;SDS011;56038;46.080;11.116;2022-12-07T10:52:21;4.13;;;2.80;;
68987;SDS011;56038;46.080;11.116;2022-12-07T10:57:45;3.42;;;2.75;;
68987;SDS011;56038;46.080;11.116;2022-12-07T11:03:06;3.63;;;3.05;;
68987;SDS011;56038;46.080;11.116;2022-12-07T11:08:39;3.45;;;3.05;;
68987;SDS011;56038;46.080;11.116;2022-12-07T11:13:56;4.93;;;3.05;;
68987;SDS011;56038;46.080;11.116;2022-12-07T11:19:15;3.83;;;2.85;;
68987;SDS011;56038;46.080;11.116;2022-12-07T11:24:29;5.32;;;3.42;;
68987;SDS011;56038;46.080;11.116;2022-12-07T11:29:54;13.27;;;9.05;;
68987;SDS011;56038;46.080;11.116;2022-12-07T11:35:04;4.50;;;2.60;;
68987;SDS011;56038;46.080;11.116;2022-12-07T11:40:15;5.32;;;3.08;;
68987;SDS011;56038;46.080;11.116;2022-12-07T11:45:22;2.65;;;2.42;;
68987;SDS011;56038;46.080;11.116;2022-12-07T11:50:33;2.78;;;2.58;;
68987;SDS011;56038;46.080;11.116;2022-12-07T11:55:41;4.53;;;3.10;;
68987;SDS011;56038;46.080;11.116;2022-12-07T12:00:47;4.90;;;3.13;;
68987;SDS011;56038;46.080;11.116;2022-12-07T12:05:50;3.78;;;3.00;;
68987;SDS011;56038;46.080;11.116;2022-12-07T12:10:55;4.35;;;3.20;;
68987;SDS011;56038;46.080;11.116;2022-12-07T12:16:06;4.32;;;3.15;;
68987;SDS011;56038;46.080;11.116;2022-12-07T12:21:22;3.80;;;3.40;;
68987;SDS011;56038;46.080;11.116;2022-12-07T12:26:31;3.30;;;2.78;;
68987;SDS011;56038;46.080;11.116;2022-12-07T12:31:37;5.22;;;3.40;;
68987;SDS011;56038;46.080;11.116;2022-12-07T12:36:43;3.28;;;2.97;;
68987;SDS011;56038;46.080;11.116;2022-12-07T12:41:55;3.78;;;3.35;;
68987;SDS011;56038;46.080;11.116;2022-12-07T12:47:37;6.32;;;3.20;;
68987;SDS011;56038;46.080;11.116;2022-12-07T12:52:57;3.85;;;3.38;;
68987;SDS011;56038;46.080;11.116;2022-12-07T12:58:27;3.67;;;2.72;;
68987;SDS011;56038;46.080;11.116;2022-12-07T13:03:37;5.03;;;2.97;;
68987;SDS011;56038;46.080;11.116;2022-12-07T13:08:39;5.07;;;3.05;;
68987;SDS011;56038;46.080;11.116;2022-12-07T13:13:44;4.95;;;2.65;;
68987;SDS011;56038;46.080;11.116;2022-12-07T13:18:46;11.43;;;5.50;;
68987;SDS011;56038;46.080;11.116;2022-12-07T13:23:52;3.67;;;3.08;;
68987;SDS011;56038;46.080;11.116;2022-12-07T13:29:05;4.25;;;2.90;;
68987;SDS011;56038;46.080;11.116;2022-12-07T13:34:28;3.67;;;3.17;;
68987;SDS011;56038;46.080;11.116;2022-12-07T13:39:32;3.33;;;2.60;;
68987;SDS011;56038;46.080;11.116;2022-12-07T13:44:39;7.80;;;3.45;;
68987;SDS011;56038;46.080;11.116;2022-12-07T13:49:46;5.47;;;2.75;;
68987;SDS011;56038;46.080;11.116;2022-12-07T13:54:54;5.85;;;3.83;;
68987;SDS011;56038;46.080;11.116;2022-12-07T13:59:59;4.53;;;2.88;;
68987;SDS011;56038;46.080;11.116;2022-12-07T14:05:06;6.82;;;3.05;;
68987;SDS011;56038;46.080;11.116;2022-12-07T14:10:22;4.38;;;3.17;;
68987;SDS011;56038;46.080;11.116;2022-12-07T14:15:27;6.23;;;3.33;;
68987;SDS011;56038;46.080;11.116;2022-12-07T14:20:32;5.93;;;4.00;;
68987;SDS011;56038;46.080;11.116;2022-12-07T14:25:44;6.05;;;3.78;;
68987;SDS011;56038;46.080;11.116;2022-12-07T14:30:48;5.07;;;3.75;;
68987;SDS011;56038;46.080;11.116;2022-12-07T14:35:50;4.18;;;3.42;;
68987;SDS011;56038;46.080;11.116;2022-12-07T14:40:55;8.20;;;3.90;;
68987;SDS011;56038;46.080;11.116;2022-12-07T14:46:19;6.65;;;3.78;;
68987;SDS011;56038;46.080;11.116;2022-12-07T14:51:21;4.65;;;3.80;;
68987;SDS011;56038;46.080;11.116;2022-12-07T14:56:23;6.03;;;4.30;;
68987;SDS011;56038;46.080;11.116;2022-12-07T15:01:26;6.80;;;4.25;;
68987;SDS011;56038;46.080;11.116;2022-12-07T15:06:28;5.93;;;3.95;;
68987;SDS011;56038;46.080;11.116;2022-12-07T15:11:29;5.35;;;4.10;;
68987;SDS011;56038;46.080;11.116;2022-12-07T15:16:33;10.02;;;3.85;;
68987;SDS011;56038;46.080;11.116;2022-12-07T15:21:35;6.22;;;4.05;;
68987;SDS011;56038;46.080;11.116;2022-12-07T15:26:37;5.03;;;3.58;;
68987;SDS011;56038;46.080;11.116;2022-12-07T15:31:42;6.85;;;3.97;;
68987;SDS011;56038;46.080;11.116;2022-12-07T15:36:45;6.33;;;4.00;;
68987;SDS011;56038;46.080;11.116;2022-12-07T15:41:47;21.65;;;7.13;;
68987;SDS011;56038;46.080;11.116;2022-12-07T15:46:50;4.10;;;3.63;;
68987;SDS011;56038;46.080;11.116;2022-12-07T15:51:52;8.88;;;4.65;;
68987;SDS011;56038;46.080;11.116;2022-12-07T15:56:54;7.13;;;3.88;;
68987;SDS011;56038;46.080;11.116;2022-12-07T16:01:58;6.78;;;4.32;;
68987;SDS011;56038;46.080;11.116;2022-12-07T16:07:00;13.07;;;7.93;;
68987;SDS011;56038;46.080;11.116;2022-12-07T16:12:02;11.80;;;4.43;;
68987;SDS011;56038;46.080;11.116;2022-12-07T16:17:06;9.38;;;4.75;;
68987;SDS011;56038;46.080;11.116;2022-12-07T16:22:08;7.28;;;5.30;;
68987;SDS011;56038;46.080;11.116;2022-12-07T16:27:20;7.90;;;5.88;;
68987;SDS011;56038;46.080;11.116;2022-12-07T16:43:38;10.25;;;9.15;;
68987;SDS011;56038;46.080;11.116;2022-12-07T16:49:13;9.70;;;6.68;;
68987;SDS011;56038;46.080;11.116;2022-12-07T16:54:26;7.80;;;6.28;;
68987;SDS011;56038;46.080;11.116;2022-12-07T16:59:31;9.50;;;6.47;;
68987;SDS011;56038;46.080;11.116;2022-12-07T17:04:34;10.68;;;8.63;;
68987;SDS011;56038;46.080;11.116;2022-12-07T17:09:37;15.55;;;8.65;;
68987;SDS011;56038;46.080;11.116;2022-12-07T17:14:39;9.57;;;7.38;;
68987;SDS011;56038;46.080;11.116;2022-12-07T17:19:59;12.45;;;8.15;;
68987;SDS011;56038;46.080;11.116;2022-12-07T17:25:01;14.40;;;8.48;;
68987;SDS011;56038;46.080;11.116;2022-12-07T17:30:03;14.60;;;9.18;;
68987;SDS011;56038;46.080;11.116;2022-12-07T17:35:08;17.35;;;10.25;;
68987;SDS011;56038;46.080;11.116;2022-12-07T17:40:11;13.15;;;8.35;;
68987;SDS011;56038;46.080;11.116;2022-12-07T17:45:14;17.30;;;9.20;;
68987;SDS011;56038;46.080;11.116;2022-12-07T17:50:17;12.95;;;9.88;;
68987;SDS011;56038;46.080;11.116;2022-12-07T17:55:40;14.65;;;9.98;;
68987;SDS011;56038;46.080;11.116;2022-12-07T18:00:42;15.80;;;8.95;;
68987;SDS011;56038;46.080;11.116;2022-12-07T18:05:46;14.73;;;10.35;;
68987;SDS011;56038;46.080;11.116;2022-12-07T18:10:48;18.08;;;9.40;;
68987;SDS011;56038;46.080;11.116;2022-12-07T18:15:54;15.20;;;9.52;;
68987;SDS011;56038;46.080;11.116;2022-12-07T18:20:59;16.55;;;8.93;;
68987;SDS011;56038;46.080;11.116;2022-12-07T18:26:03;13.30;;;9.15;;
68987;SDS011;56038;46.080;11.116;2022-12-07T18:31:04;21.65;;;10.40;;
68987;SDS011;56038;46.080;11.116;2022-12-07T18:36:08;12.18;;;9.73;;
68987;SDS011;56038;46.080;11.116;2022-12-07T18:41:11;17.65;;;11.02;;
68987;SDS011;56038;46.080;11.116;2022-12-07T18:46:14;15.35;;;10.75;;
68987;SDS011;56038;46.080;11.116;2022-12-07T18:51:19;17.42;;;10.88;;
68987;SDS011;56038;46.080;11.116;2022-12-07T18:56:21;19.98;;;12.27;;
68987;SDS011;56038;46.080;11.116;2022-12-07T19:01:24;22.88;;;12.18;;
68987;SDS011;56038;46.080;11.116;2022-12-07T19:06:28;22.70;;;12.85;;
68987;SDS011;56038;46.080;11.116;2022-12-07T19:11:30;25.35;;;13.02;;
68987;SDS011;56038;46.080;11.116;2022-12-07T19:16:52;16.42;;;10.38;;
68987;SDS011;56038;46.080;11.116;2022-12-07T19:22:11;13.80;;;9.73;;
68987;SDS011;56038;46.080;11.116;2022-12-07T19:27:16;17.55;;;11.75;;
68987;SDS011;56038;46.080;11.116;2022-12-07T19:32:38;19.52;;;11.93;;
68987;SDS011;56038;46.080;11.116;2022-12-07T19:37:59;16.33;;;12.20;;
68987;SDS011;56038;46.080;11.116;2022-12-07T19:43:04;19.92;;;14.60;;
68987;SDS011;56038;46.080;11.116;2022-12-07T19:48:09;19.13;;;13.30;;
68987;SDS011;56038;46.080;11.116;2022-12-07T19:53:13;48.63;;;26.00;;
68987;SDS011;56038;46.080;11.116;2022-12-07T19:58:15;21.95;;;13.95;;
68987;SDS011;56038;46.080;11.116;2022-12-07T20:03:16;20.13;;;13.52;;
68987;SDS011;56038;46.080;11.116;2022-12-07T20:08:22;18.17;;;13.23;;
68987;SDS011;56038;46.080;11.116;2022-12-07T20:13:24;20.05;;;12.70;;
68987;SDS011;56038;46.080;11.116;2022-12-07T20:18:31;21.75;;;13.48;;
68987;SDS011;56038;46.080;11.116;2022-12-07T20:23:35;20.88;;;12.55;;
68987;SDS011;56038;46.080;11.116;2022-12-07T20:28:37;22.58;;;14.73;;
68987;SDS011;56038;46.080;11.116;2022-12-07T20:33:45;27.20;;;15.80;;
68987;SDS011;56038;46.080;11.116;2022-12-07T20:38:49;25.88;;;14.32;;
68987;SDS011;56038;46.080;11.116;2022-12-07T20:43:52;18.88;;;13.45;;
68987;SDS011;56038;46.080;11.116;2022-12-07T20:48:56;21.83;;;14.25;;
68987;SDS011;56038;46.080;11.116;2022-12-07T20:53:59;21.40;;;13.85;;
68987;SDS011;56038;46.080;11.116;2022-12-07T20:59:04;24.88;;;13.90;;
68987;SDS011;56038;46.080;11.116;2022-12-07T21:04:24;18.48;;;11.65;;
68987;SDS011;56038;46.080;11.116;2022-12-07T21:09:27;17.85;;;12.48;;
68987;SDS011;56038;46.080;11.116;2022-12-07T21:14:29;18.50;;;10.77;;
68987;SDS011;56038;46.080;11.116;2022-12-07T21:19:32;26.00;;;13.77;;
68987;SDS011;56038;46.080;11.116;2022-12-07T21:24:35;18.25;;;12.00;;
68987;SDS011;56038;46.080;11.116;2022-12-07T21:29:38;16.08;;;11.30;;
68987;SDS011;56038;46.080;11.116;2022-12-07T21:34:40;19.55;;;11.10;;
68987;SDS011;56038;46.080;11.116;2022-12-07T21:39:43;17.67;;;10.75;;
68987;SDS011;56038;46.080;11.116;2022-12-07T21:44:45;15.43;;;9.68;;
68987;SDS011;56038;46.080;11.116;2022-12-07T21:49:47;16.10;;;9.27;;
68987;SDS011;56038;46.080;11.116;2022-12-07T21:54:50;13.25;;;9.48;;
68987;SDS011;56038;46.080;11.116;2022-12-07T21:59:54;13.53;;;9.33;;
68987;SDS011;56038;46.080;11.116;2022-12-07T22:04:56;13.82;;;10.02;;
68987;SDS011;56038;46.080;11.116;2022-12-07T22:09:59;13.57;;;9.07;;
68987;SDS011;56038;46.080;11.116;2022-12-07T22:15:01;16.95;;;10.50;;
68987;SDS011;56038;46.080;11.116;2022-12-07T22:20:09;14.02;;;9.32;;
68987;SDS011;56038;46.080;11.116;2022-12-07T22:25:13;15.05;;;10.20;;
68987;SDS011;56038;46.080;11.116;2022-12-07T22:30:15;13.10;;;9.90;;
68987;SDS011;56038;46.080;11.116;2022-12-07T22:35:17;19.40;;;10.20;;
68987;SDS011;56038;46.080;11.116;2022-12-07T22:40:20;15.43;;;9.80;;
68987;SDS011;56038;46.080;11.116;2022-12-07T22:45:22;12.45;;;8.68;;
68987;SDS011;56038;46.080;11.116;2022-12-07T22:50:23;14.13;;;9.43;;
68987;SDS011;56038;46.080;11.116;2022-12-07T22:55:26;13.15;;;8.90;;
68987;SDS011;56038;46.080;11.116;2022-12-07T23:00:28;13.85;;;9.23;;
68987;SDS011;56038;46.080;11.116;2022-12-07T23:05:30;12.65;;;8.52;;
68987;SDS011;56038;46.080;11.116;2022-12-07T23:10:33;13.50;;;8.93;;
68987;SDS011;56038;46.080;11.116;2022-12-07T23:15:35;17.50;;;9.07;;
68987;SDS011;56038;46.080;11.116;2022-12-07T23:20:38;14.68;;;9.23;;
68987;SDS011;56038;46.080;11.116;2022-12-07T23:25:41;18.33;;;10.13;;
68987;SDS011;56038;46.080;11.116;2022-12-07T23:30:43;19.33;;;10.27;;
68987;SDS011;56038;46.080;11.116;2022-12-07T23:35:45;12.57;;;8.73;;
68987;SDS011;56038;46.080;11.116;2022-12-07T23:41:04;14.15;;;8.68;;
68987;SDS011;56038;46.080;11.116;2022-12-07T23:46:07;16.75;;;9.73;;
68987;SDS011;56038;46.080;11.116;2022-12-07T23:56:22;13.57;;;9.48;;
